sensor_id;sensor_type;location;lat;lon;timestamp;P1;durP1;ratioP1;P2;durP2;ratioP2
8407;SDS011;4241;48.452;9.216;2022-12-07T00:01:19;305.43;;;95.13;;
8407;SDS011;4241;48.452;9.216;2022-12-07T00:03:50;306.27;;;94.87;;
8407;SDS011;4241;48.452;9.216;2022-12-07T00:06:18;312.00;;;95.53;;
8407;SDS011;4241;48.452;9.216;2022-12-07T00:08:46;321.97;;;97.60;;
8407;SDS011;4241;48.452;9.216;2022-12-07T00:11:14;328.97;;;100.33;;
8407;SDS011;4241;48.452;9.216;2022-12-07T00:13:42;328.30;;;98.33;;
8407;SDS011;4241;48.452;9.216;2022-12-07T00:16:10;328.07;;;98.53;;
8407;SDS011;4241;48.452;9.216;2022-12-07T00:18:38;330.23;;;99.20;;
8407;SDS011;4241;48.452;9.216;2022-12-07T00:21:08;329.40;;;97.57;;
8407;SDS011;4241;48.452;9.216;2022-12-07T00:23:36;326.10;;;97.50;;
8407;SDS011;4241;48.452;9.216;2022-12-07T00:26:04;325.27;;;97.07;;
8407;SDS011;4241;48.452;9.216;2022-12-07T00:28:32;324.20;;;98.23;;
8407;SDS011;4241;48.452;9.216;2022-12-07T00:31:00;325.80;;;97.50;;
8407;SDS011;4241;48.452;9.216;2022-12-07T00:33:31;326.60;;;97.60;;
8407;SDS011;4241;48.452;9.216;2022-12-07T00:35:59;328.23;;;98.77;;
8407;SDS011;4241;48.452;9.216;2022-12-07T00:38:29;327.23;;;98.03;;
8407;SDS011;4241;48.452;9.216;2022-12-07T00:40:57;326.33;;;98.30;;
8407;SDS011;4241;48.452;9.216;2022-12-07T00:43:25;323.27;;;97.33;;
8407;SDS011;4241;48.452;9.216;2022-12-07T00:45:52;323.27;;;97.30;;
8407;SDS011;4241;48.452;9.216;2022-12-07T00:48:19;320.73;;;96.43;;
8407;SDS011;4241;48.452;9.216;2022-12-07T00:50:46;324.37;;;98.33;;
8407;SDS011;4241;48.452;9.216;2022-12-07T00:53:13;326.07;;;98.10;;
8407;SDS011;4241;48.452;9.216;2022-12-07T00:55:41;322.13;;;96.87;;
8407;SDS011;4241;48.452;9.216;2022-12-07T00:58:09;323.27;;;97.17;;
8407;SDS011;4241;48.452;9.216;2022-12-07T01:00:37;328.80;;;98.43;;
8407;SDS011;4241;48.452;9.216;2022-12-07T01:03:05;321.17;;;95.60;;
8407;SDS011;4241;48.452;9.216;2022-12-07T01:05:32;324.50;;;97.33;;
8407;SDS011;4241;48.452;9.216;2022-12-07T01:07:59;311.67;;;95.60;;
8407;SDS011;4241;48.452;9.216;2022-12-07T01:10:26;315.57;;;97.63;;
8407;SDS011;4241;48.452;9.216;2022-12-07T01:12:56;308.90;;;94.43;;
8407;SDS011;4241;48.452;9.216;2022-12-07T01:15:24;317.13;;;96.17;;
8407;SDS011;4241;48.452;9.216;2022-12-07T01:17:51;323.87;;;97.60;;
8407;SDS011;4241;48.452;9.216;2022-12-07T01:20:19;320.63;;;96.60;;
8407;SDS011;4241;48.452;9.216;2022-12-07T01:22:46;325.50;;;97.57;;
8407;SDS011;4241;48.452;9.216;2022-12-07T01:25:13;322.47;;;96.40;;
8407;SDS011;4241;48.452;9.216;2022-12-07T01:27:39;322.63;;;96.57;;
8407;SDS011;4241;48.452;9.216;2022-12-07T01:30:09;304.83;;;93.03;;
8407;SDS011;4241;48.452;9.216;2022-12-07T01:32:37;309.10;;;95.17;;
8407;SDS011;4241;48.452;9.216;2022-12-07T01:35:04;307.13;;;95.23;;
8407;SDS011;4241;48.452;9.216;2022-12-07T01:37:33;304.30;;;93.47;;
8407;SDS011;4241;48.452;9.216;2022-12-07T01:40:01;301.70;;;94.17;;
8407;SDS011;4241;48.452;9.216;2022-12-07T01:42:28;301.07;;;94.20;;
8407;SDS011;4241;48.452;9.216;2022-12-07T01:48:12;291.03;;;90.57;;
8407;SDS011;4241;48.452;9.216;2022-12-07T01:50:42;294.27;;;91.90;;
8407;SDS011;4241;48.452;9.216;2022-12-07T01:53:11;292.43;;;90.43;;
8407;SDS011;4241;48.452;9.216;2022-12-07T01:55:40;295.13;;;92.67;;
8407;SDS011;4241;48.452;9.216;2022-12-07T01:58:10;291.80;;;90.93;;
8407;SDS011;4241;48.452;9.216;2022-12-07T02:00:38;289.93;;;90.93;;
8407;SDS011;4241;48.452;9.216;2022-12-07T02:03:08;292.13;;;91.30;;
8407;SDS011;4241;48.452;9.216;2022-12-07T02:05:42;294.60;;;92.03;;
8407;SDS011;4241;48.452;9.216;2022-12-07T02:08:10;299.00;;;92.90;;
8407;SDS011;4241;48.452;9.216;2022-12-07T02:10:38;295.87;;;91.87;;
8407;SDS011;4241;48.452;9.216;2022-12-07T02:13:06;297.50;;;92.60;;
8407;SDS011;4241;48.452;9.216;2022-12-07T02:15:40;303.17;;;93.40;;
8407;SDS011;4241;48.452;9.216;2022-12-07T02:18:16;301.07;;;92.77;;
8407;SDS011;4241;48.452;9.216;2022-12-07T02:20:49;305.97;;;94.80;;
8407;SDS011;4241;48.452;9.216;2022-12-07T02:23:29;305.17;;;94.17;;
8407;SDS011;4241;48.452;9.216;2022-12-07T02:29:12;306.07;;;94.37;;
8407;SDS011;4241;48.452;9.216;2022-12-07T02:31:44;306.63;;;93.90;;
8407;SDS011;4241;48.452;9.216;2022-12-07T02:34:19;309.63;;;94.37;;
8407;SDS011;4241;48.452;9.216;2022-12-07T02:36:52;308.03;;;94.00;;
8407;SDS011;4241;48.452;9.216;2022-12-07T02:39:24;316.63;;;96.20;;
8407;SDS011;4241;48.452;9.216;2022-12-07T02:41:57;314.23;;;95.30;;
8407;SDS011;4241;48.452;9.216;2022-12-07T02:44:30;310.80;;;93.47;;
8407;SDS011;4241;48.452;9.216;2022-12-07T02:46:59;309.07;;;93.03;;
8407;SDS011;4241;48.452;9.216;2022-12-07T02:49:29;310.00;;;94.97;;
8407;SDS011;4241;48.452;9.216;2022-12-07T02:51:57;305.77;;;93.20;;
8407;SDS011;4241;48.452;9.216;2022-12-07T02:54:24;309.90;;;95.40;;
8407;SDS011;4241;48.452;9.216;2022-12-07T02:56:52;310.97;;;95.07;;
8407;SDS011;4241;48.452;9.216;2022-12-07T02:59:32;302.50;;;93.50;;
8407;SDS011;4241;48.452;9.216;2022-12-07T03:02:10;295.17;;;92.07;;
8407;SDS011;4241;48.452;9.216;2022-12-07T03:04:47;306.50;;;98.03;;
8407;SDS011;4241;48.452;9.216;2022-12-07T03:07:27;296.27;;;91.47;;
8407;SDS011;4241;48.452;9.216;2022-12-07T03:10:01;296.00;;;92.33;;
8407;SDS011;4241;48.452;9.216;2022-12-07T03:12:35;297.70;;;93.60;;
8407;SDS011;4241;48.452;9.216;2022-12-07T03:15:12;301.33;;;93.13;;
8407;SDS011;4241;48.452;9.216;2022-12-07T03:17:44;301.60;;;93.73;;
8407;SDS011;4241;48.452;9.216;2022-12-07T03:20:13;291.33;;;90.77;;
8407;SDS011;4241;48.452;9.216;2022-12-07T03:22:42;295.73;;;92.17;;
8407;SDS011;4241;48.452;9.216;2022-12-07T03:25:11;292.50;;;91.67;;
8407;SDS011;4241;48.452;9.216;2022-12-07T03:27:42;293.07;;;92.83;;
8407;SDS011;4241;48.452;9.216;2022-12-07T03:30:16;284.63;;;90.00;;
8407;SDS011;4241;48.452;9.216;2022-12-07T03:32:45;285.83;;;90.77;;
8407;SDS011;4241;48.452;9.216;2022-12-07T03:35:19;284.30;;;90.17;;
8407;SDS011;4241;48.452;9.216;2022-12-07T03:37:51;277.30;;;89.57;;
8407;SDS011;4241;48.452;9.216;2022-12-07T03:40:22;287.17;;;91.87;;
8407;SDS011;4241;48.452;9.216;2022-12-07T03:42:54;275.37;;;88.43;;
8407;SDS011;4241;48.452;9.216;2022-12-07T03:45:28;271.20;;;88.23;;
8407;SDS011;4241;48.452;9.216;2022-12-07T03:48:04;275.87;;;89.57;;
8407;SDS011;4241;48.452;9.216;2022-12-07T03:50:37;270.30;;;88.57;;
8407;SDS011;4241;48.452;9.216;2022-12-07T03:53:08;275.63;;;90.60;;
8407;SDS011;4241;48.452;9.216;2022-12-07T03:55:41;273.30;;;88.53;;
8407;SDS011;4241;48.452;9.216;2022-12-07T03:58:11;265.60;;;86.33;;
8407;SDS011;4241;48.452;9.216;2022-12-07T04:00:42;269.07;;;87.73;;
8407;SDS011;4241;48.452;9.216;2022-12-07T04:03:10;265.10;;;86.80;;
8407;SDS011;4241;48.452;9.216;2022-12-07T04:05:37;265.07;;;86.13;;
8407;SDS011;4241;48.452;9.216;2022-12-07T04:08:05;267.20;;;86.87;;
8407;SDS011;4241;48.452;9.216;2022-12-07T04:10:32;264.40;;;86.63;;
8407;SDS011;4241;48.452;9.216;2022-12-07T04:12:59;262.30;;;86.57;;
8407;SDS011;4241;48.452;9.216;2022-12-07T04:15:26;264.63;;;87.07;;
8407;SDS011;4241;48.452;9.216;2022-12-07T04:17:54;253.30;;;84.30;;
8407;SDS011;4241;48.452;9.216;2022-12-07T04:20:21;256.03;;;85.93;;
8407;SDS011;4241;48.452;9.216;2022-12-07T04:22:48;254.13;;;85.30;;
8407;SDS011;4241;48.452;9.216;2022-12-07T04:25:14;255.47;;;85.47;;
8407;SDS011;4241;48.452;9.216;2022-12-07T04:27:41;251.23;;;84.80;;
8407;SDS011;4241;48.452;9.216;2022-12-07T04:30:08;258.13;;;85.50;;
8407;SDS011;4241;48.452;9.216;2022-12-07T04:32:35;263.33;;;87.77;;
8407;SDS011;4241;48.452;9.216;2022-12-07T04:35:04;264.87;;;87.83;;
8407;SDS011;4241;48.452;9.216;2022-12-07T04:37:31;264.20;;;87.60;;
8407;SDS011;4241;48.452;9.216;2022-12-07T04:39:58;259.50;;;86.37;;
8407;SDS011;4241;48.452;9.216;2022-12-07T04:42:25;266.47;;;89.03;;
8407;SDS011;4241;48.452;9.216;2022-12-07T04:44:52;261.50;;;91.80;;
8407;SDS011;4241;48.452;9.216;2022-12-07T04:47:20;253.77;;;84.67;;
8407;SDS011;4241;48.452;9.216;2022-12-07T04:49:47;256.20;;;84.90;;
8407;SDS011;4241;48.452;9.216;2022-12-07T04:52:15;258.60;;;86.43;;
8407;SDS011;4241;48.452;9.216;2022-12-07T04:54:42;268.97;;;91.53;;
8407;SDS011;4241;48.452;9.216;2022-12-07T04:57:08;263.23;;;87.90;;
8407;SDS011;4241;48.452;9.216;2022-12-07T04:59:35;252.97;;;85.20;;
8407;SDS011;4241;48.452;9.216;2022-12-07T05:02:02;260.07;;;86.60;;
8407;SDS011;4241;48.452;9.216;2022-12-07T05:04:29;256.60;;;86.50;;
8407;SDS011;4241;48.452;9.216;2022-12-07T05:06:56;262.03;;;86.40;;
8407;SDS011;4241;48.452;9.216;2022-12-07T05:09:24;267.63;;;87.47;;
8407;SDS011;4241;48.452;9.216;2022-12-07T05:11:51;265.57;;;86.60;;
8407;SDS011;4241;48.452;9.216;2022-12-07T05:14:18;270.07;;;87.43;;
8407;SDS011;4241;48.452;9.216;2022-12-07T05:16:47;270.07;;;87.47;;
8407;SDS011;4241;48.452;9.216;2022-12-07T05:19:15;267.10;;;86.77;;
8407;SDS011;4241;48.452;9.216;2022-12-07T05:21:42;257.63;;;85.40;;
8407;SDS011;4241;48.452;9.216;2022-12-07T05:24:10;273.17;;;88.67;;
8407;SDS011;4241;48.452;9.216;2022-12-07T05:26:39;282.13;;;89.63;;
8407;SDS011;4241;48.452;9.216;2022-12-07T05:29:06;288.80;;;90.20;;
8407;SDS011;4241;48.452;9.216;2022-12-07T05:31:33;291.37;;;89.40;;
8407;SDS011;4241;48.452;9.216;2022-12-07T05:34:00;296.20;;;91.60;;
8407;SDS011;4241;48.452;9.216;2022-12-07T05:36:27;299.77;;;92.50;;
8407;SDS011;4241;48.452;9.216;2022-12-07T05:38:56;301.90;;;93.77;;
8407;SDS011;4241;48.452;9.216;2022-12-07T05:41:23;299.33;;;92.50;;
8407;SDS011;4241;48.452;9.216;2022-12-07T05:44:08;293.50;;;89.77;;
8407;SDS011;4241;48.452;9.216;2022-12-07T05:46:35;296.43;;;91.20;;
8407;SDS011;4241;48.452;9.216;2022-12-07T05:49:02;297.37;;;92.83;;
8407;SDS011;4241;48.452;9.216;2022-12-07T05:51:29;295.10;;;91.50;;
8407;SDS011;4241;48.452;9.216;2022-12-07T05:53:55;302.27;;;95.40;;
8407;SDS011;4241;48.452;9.216;2022-12-07T05:56:22;311.37;;;99.13;;
8407;SDS011;4241;48.452;9.216;2022-12-07T05:58:49;288.80;;;89.53;;
8407;SDS011;4241;48.452;9.216;2022-12-07T06:01:46;282.97;;;89.13;;
8407;SDS011;4241;48.452;9.216;2022-12-07T06:04:13;276.07;;;88.23;;
8407;SDS011;4241;48.452;9.216;2022-12-07T06:06:40;291.97;;;92.80;;
8407;SDS011;4241;48.452;9.216;2022-12-07T06:09:07;273.53;;;87.43;;
8407;SDS011;4241;48.452;9.216;2022-12-07T06:11:34;273.07;;;87.07;;
8407;SDS011;4241;48.452;9.216;2022-12-07T06:14:18;272.93;;;88.00;;
8407;SDS011;4241;48.452;9.216;2022-12-07T06:16:46;271.17;;;86.23;;
8407;SDS011;4241;48.452;9.216;2022-12-07T06:19:13;269.17;;;85.50;;
8407;SDS011;4241;48.452;9.216;2022-12-07T06:21:40;267.87;;;86.00;;
8407;SDS011;4241;48.452;9.216;2022-12-07T06:24:08;272.67;;;86.40;;
8407;SDS011;4241;48.452;9.216;2022-12-07T06:26:36;279.13;;;87.87;;
8407;SDS011;4241;48.452;9.216;2022-12-07T06:29:03;278.73;;;87.83;;
8407;SDS011;4241;48.452;9.216;2022-12-07T06:31:30;279.10;;;87.77;;
8407;SDS011;4241;48.452;9.216;2022-12-07T06:33:59;275.83;;;86.37;;
8407;SDS011;4241;48.452;9.216;2022-12-07T06:36:27;274.17;;;86.80;;
8407;SDS011;4241;48.452;9.216;2022-12-07T06:38:54;275.13;;;85.87;;
8407;SDS011;4241;48.452;9.216;2022-12-07T06:41:21;276.43;;;87.37;;
8407;SDS011;4241;48.452;9.216;2022-12-07T06:43:48;278.00;;;87.37;;
8407;SDS011;4241;48.452;9.216;2022-12-07T06:46:15;276.23;;;86.77;;
8407;SDS011;4241;48.452;9.216;2022-12-07T06:48:42;272.67;;;86.87;;
8407;SDS011;4241;48.452;9.216;2022-12-07T06:51:11;279.47;;;88.47;;
8407;SDS011;4241;48.452;9.216;2022-12-07T06:53:38;266.87;;;85.33;;
8407;SDS011;4241;48.452;9.216;2022-12-07T06:56:05;281.73;;;90.83;;
8407;SDS011;4241;48.452;9.216;2022-12-07T06:58:32;264.03;;;84.90;;
8407;SDS011;4241;48.452;9.216;2022-12-07T07:00:59;259.93;;;83.27;;
8407;SDS011;4241;48.452;9.216;2022-12-07T07:03:25;266.57;;;84.83;;
8407;SDS011;4241;48.452;9.216;2022-12-07T07:05:52;270.10;;;85.63;;
8407;SDS011;4241;48.452;9.216;2022-12-07T07:08:20;266.07;;;84.53;;
8407;SDS011;4241;48.452;9.216;2022-12-07T07:10:47;259.13;;;83.57;;
8407;SDS011;4241;48.452;9.216;2022-12-07T07:13:14;261.77;;;83.43;;
8407;SDS011;4241;48.452;9.216;2022-12-07T07:15:41;268.67;;;85.93;;
8407;SDS011;4241;48.452;9.216;2022-12-07T07:18:07;269.90;;;85.20;;
8407;SDS011;4241;48.452;9.216;2022-12-07T07:20:34;269.53;;;84.57;;
8407;SDS011;4241;48.452;9.216;2022-12-07T07:23:01;273.43;;;86.40;;
8407;SDS011;4241;48.452;9.216;2022-12-07T07:25:30;277.23;;;89.17;;
8407;SDS011;4241;48.452;9.216;2022-12-07T07:27:56;270.93;;;85.47;;
8407;SDS011;4241;48.452;9.216;2022-12-07T07:30:23;269.57;;;85.80;;
8407;SDS011;4241;48.452;9.216;2022-12-07T07:32:50;261.53;;;83.60;;
8407;SDS011;4241;48.452;9.216;2022-12-07T07:35:17;265.73;;;84.40;;
8407;SDS011;4241;48.452;9.216;2022-12-07T07:37:44;265.70;;;84.50;;
8407;SDS011;4241;48.452;9.216;2022-12-07T07:40:11;270.27;;;84.77;;
8407;SDS011;4241;48.452;9.216;2022-12-07T07:42:39;270.10;;;85.43;;
8407;SDS011;4241;48.452;9.216;2022-12-07T07:45:06;279.23;;;88.63;;
8407;SDS011;4241;48.452;9.216;2022-12-07T07:47:34;278.73;;;87.50;;
8407;SDS011;4241;48.452;9.216;2022-12-07T07:50:00;279.10;;;88.47;;
8407;SDS011;4241;48.452;9.216;2022-12-07T07:52:27;275.73;;;87.13;;
8407;SDS011;4241;48.452;9.216;2022-12-07T07:54:54;279.97;;;90.23;;
8407;SDS011;4241;48.452;9.216;2022-12-07T07:57:21;278.10;;;86.73;;
8407;SDS011;4241;48.452;9.216;2022-12-07T07:59:49;283.53;;;90.10;;
8407;SDS011;4241;48.452;9.216;2022-12-07T08:02:16;280.83;;;87.83;;
8407;SDS011;4241;48.452;9.216;2022-12-07T08:04:45;293.40;;;93.33;;
8407;SDS011;4241;48.452;9.216;2022-12-07T08:07:12;289.83;;;90.00;;
8407;SDS011;4241;48.452;9.216;2022-12-07T08:09:40;285.77;;;88.13;;
8407;SDS011;4241;48.452;9.216;2022-12-07T08:12:07;285.37;;;88.47;;
8407;SDS011;4241;48.452;9.216;2022-12-07T08:14:34;289.90;;;90.20;;
8407;SDS011;4241;48.452;9.216;2022-12-07T08:17:03;291.60;;;90.53;;
8407;SDS011;4241;48.452;9.216;2022-12-07T08:19:29;293.17;;;89.77;;
8407;SDS011;4241;48.452;9.216;2022-12-07T08:21:56;291.57;;;89.30;;
8407;SDS011;4241;48.452;9.216;2022-12-07T08:24:23;302.53;;;94.30;;
8407;SDS011;4241;48.452;9.216;2022-12-07T08:26:51;289.43;;;88.50;;
8407;SDS011;4241;48.452;9.216;2022-12-07T08:29:17;300.03;;;91.70;;
8407;SDS011;4241;48.452;9.216;2022-12-07T08:31:44;293.13;;;90.43;;
8407;SDS011;4241;48.452;9.216;2022-12-07T08:34:13;289.40;;;89.30;;
8407;SDS011;4241;48.452;9.216;2022-12-07T08:36:39;291.03;;;90.07;;
8407;SDS011;4241;48.452;9.216;2022-12-07T08:39:06;287.77;;;89.57;;
8407;SDS011;4241;48.452;9.216;2022-12-07T08:41:33;295.00;;;90.23;;
8407;SDS011;4241;48.452;9.216;2022-12-07T08:44:00;295.57;;;91.33;;
8407;SDS011;4241;48.452;9.216;2022-12-07T08:46:28;290.70;;;91.20;;
8407;SDS011;4241;48.452;9.216;2022-12-07T08:49:02;291.70;;;90.43;;
8407;SDS011;4241;48.452;9.216;2022-12-07T08:51:33;295.67;;;91.03;;
8407;SDS011;4241;48.452;9.216;2022-12-07T08:54:00;300.57;;;92.57;;
8407;SDS011;4241;48.452;9.216;2022-12-07T08:56:30;301.67;;;92.43;;
8407;SDS011;4241;48.452;9.216;2022-12-07T08:58:57;308.30;;;93.57;;
8407;SDS011;4241;48.452;9.216;2022-12-07T09:01:24;305.07;;;93.30;;
8407;SDS011;4241;48.452;9.216;2022-12-07T09:03:52;301.77;;;92.77;;
8407;SDS011;4241;48.452;9.216;2022-12-07T09:06:26;307.97;;;94.07;;
8407;SDS011;4241;48.452;9.216;2022-12-07T09:08:55;312.90;;;94.70;;
8407;SDS011;4241;48.452;9.216;2022-12-07T09:11:24;317.53;;;97.13;;
8407;SDS011;4241;48.452;9.216;2022-12-07T09:13:51;318.47;;;95.70;;
8407;SDS011;4241;48.452;9.216;2022-12-07T09:16:18;324.33;;;97.97;;
8407;SDS011;4241;48.452;9.216;2022-12-07T09:18:45;327.20;;;98.77;;
8407;SDS011;4241;48.452;9.216;2022-12-07T09:21:12;325.60;;;98.27;;
8407;SDS011;4241;48.452;9.216;2022-12-07T09:23:38;327.57;;;98.30;;
8407;SDS011;4241;48.452;9.216;2022-12-07T09:26:08;328.03;;;99.37;;
8407;SDS011;4241;48.452;9.216;2022-12-07T09:28:35;326.67;;;99.13;;
8407;SDS011;4241;48.452;9.216;2022-12-07T09:31:03;331.73;;;99.80;;
8407;SDS011;4241;48.452;9.216;2022-12-07T09:33:30;340.23;;;101.73;;
8407;SDS011;4241;48.452;9.216;2022-12-07T09:35:57;341.77;;;100.50;;
8407;SDS011;4241;48.452;9.216;2022-12-07T09:38:24;350.03;;;103.23;;
8407;SDS011;4241;48.452;9.216;2022-12-07T09:40:51;349.73;;;103.27;;
8407;SDS011;4241;48.452;9.216;2022-12-07T09:43:20;344.03;;;101.00;;
8407;SDS011;4241;48.452;9.216;2022-12-07T09:45:49;347.07;;;102.33;;
8407;SDS011;4241;48.452;9.216;2022-12-07T09:48:18;344.93;;;102.47;;
8407;SDS011;4241;48.452;9.216;2022-12-07T09:50:47;345.93;;;102.70;;
8407;SDS011;4241;48.452;9.216;2022-12-07T09:53:17;340.03;;;101.57;;
8407;SDS011;4241;48.452;9.216;2022-12-07T09:55:48;343.57;;;101.57;;
8407;SDS011;4241;48.452;9.216;2022-12-07T09:58:17;346.60;;;101.47;;
8407;SDS011;4241;48.452;9.216;2022-12-07T10:00:49;340.97;;;101.33;;
8407;SDS011;4241;48.452;9.216;2022-12-07T10:03:19;342.83;;;102.90;;
8407;SDS011;4241;48.452;9.216;2022-12-07T10:05:47;337.77;;;102.20;;
8407;SDS011;4241;48.452;9.216;2022-12-07T10:08:16;324.63;;;97.97;;
8407;SDS011;4241;48.452;9.216;2022-12-07T10:10:44;333.20;;;99.30;;
8407;SDS011;4241;48.452;9.216;2022-12-07T10:13:12;336.93;;;100.80;;
8407;SDS011;4241;48.452;9.216;2022-12-07T10:15:42;336.43;;;100.47;;
8407;SDS011;4241;48.452;9.216;2022-12-07T10:18:19;336.67;;;101.40;;
8407;SDS011;4241;48.452;9.216;2022-12-07T10:20:59;338.97;;;101.73;;
8407;SDS011;4241;48.452;9.216;2022-12-07T10:23:32;327.97;;;99.50;;
8407;SDS011;4241;48.452;9.216;2022-12-07T10:25:59;334.67;;;101.20;;
8407;SDS011;4241;48.452;9.216;2022-12-07T10:28:46;333.90;;;100.97;;
8407;SDS011;4241;48.452;9.216;2022-12-07T10:31:16;343.57;;;102.40;;
8407;SDS011;4241;48.452;9.216;2022-12-07T10:33:48;352.30;;;103.63;;
8407;SDS011;4241;48.452;9.216;2022-12-07T10:36:18;361.13;;;105.60;;
8407;SDS011;4241;48.452;9.216;2022-12-07T10:38:48;367.17;;;109.87;;
8407;SDS011;4241;48.452;9.216;2022-12-07T10:41:17;362.40;;;105.93;;
8407;SDS011;4241;48.452;9.216;2022-12-07T10:43:51;367.53;;;106.87;;
8407;SDS011;4241;48.452;9.216;2022-12-07T10:46:24;373.03;;;108.60;;
8407;SDS011;4241;48.452;9.216;2022-12-07T10:49:13;364.17;;;106.30;;
8407;SDS011;4241;48.452;9.216;2022-12-07T10:51:54;359.43;;;105.87;;
8407;SDS011;4241;48.452;9.216;2022-12-07T10:54:28;352.53;;;104.00;;
8407;SDS011;4241;48.452;9.216;2022-12-07T10:57:20;352.43;;;102.83;;
8407;SDS011;4241;48.452;9.216;2022-12-07T11:00:00;352.77;;;104.10;;
8407;SDS011;4241;48.452;9.216;2022-12-07T11:02:44;358.63;;;105.03;;
8407;SDS011;4241;48.452;9.216;2022-12-07T11:05:30;358.10;;;104.87;;
8407;SDS011;4241;48.452;9.216;2022-12-07T11:08:12;360.70;;;106.93;;
8407;SDS011;4241;48.452;9.216;2022-12-07T11:10:44;357.60;;;105.27;;
8407;SDS011;4241;48.452;9.216;2022-12-07T11:13:24;342.37;;;102.77;;
8407;SDS011;4241;48.452;9.216;2022-12-07T11:16:00;335.83;;;101.70;;
8407;SDS011;4241;48.452;9.216;2022-12-07T11:18:37;335.73;;;102.67;;
8407;SDS011;4241;48.452;9.216;2022-12-07T11:21:11;331.50;;;100.67;;
8407;SDS011;4241;48.452;9.216;2022-12-07T11:23:48;330.20;;;101.27;;
8407;SDS011;4241;48.452;9.216;2022-12-07T11:26:30;332.10;;;102.03;;
8407;SDS011;4241;48.452;9.216;2022-12-07T11:29:21;331.37;;;101.20;;
8407;SDS011;4241;48.452;9.216;2022-12-07T11:32:09;327.97;;;99.60;;
8407;SDS011;4241;48.452;9.216;2022-12-07T11:34:47;338.87;;;105.93;;
8407;SDS011;4241;48.452;9.216;2022-12-07T11:37:25;336.23;;;103.30;;
8407;SDS011;4241;48.452;9.216;2022-12-07T11:39:56;337.23;;;103.07;;
8407;SDS011;4241;48.452;9.216;2022-12-07T11:42:29;345.73;;;105.70;;
8407;SDS011;4241;48.452;9.216;2022-12-07T11:45:00;360.90;;;106.33;;
8407;SDS011;4241;48.452;9.216;2022-12-07T11:47:36;367.47;;;108.00;;
8407;SDS011;4241;48.452;9.216;2022-12-07T11:50:16;369.80;;;109.13;;
8407;SDS011;4241;48.452;9.216;2022-12-07T11:52:53;358.97;;;105.77;;
8407;SDS011;4241;48.452;9.216;2022-12-07T11:55:24;364.57;;;107.97;;
8407;SDS011;4241;48.452;9.216;2022-12-07T11:57:58;364.20;;;107.17;;
8407;SDS011;4241;48.452;9.216;2022-12-07T12:00:30;366.87;;;107.20;;
8407;SDS011;4241;48.452;9.216;2022-12-07T12:02:58;371.70;;;108.57;;
8407;SDS011;4241;48.452;9.216;2022-12-07T12:05:30;367.57;;;107.93;;
8407;SDS011;4241;48.452;9.216;2022-12-07T12:07:59;368.97;;;108.87;;
8407;SDS011;4241;48.452;9.216;2022-12-07T12:10:38;360.07;;;106.73;;
8407;SDS011;4241;48.452;9.216;2022-12-07T12:13:23;356.93;;;105.63;;
8407;SDS011;4241;48.452;9.216;2022-12-07T12:16:12;355.00;;;105.90;;
8407;SDS011;4241;48.452;9.216;2022-12-07T12:19:06;356.83;;;104.73;;
8407;SDS011;4241;48.452;9.216;2022-12-07T12:21:46;356.97;;;105.57;;
8407;SDS011;4241;48.452;9.216;2022-12-07T12:24:22;360.43;;;105.23;;
8407;SDS011;4241;48.452;9.216;2022-12-07T12:26:52;357.40;;;105.80;;
8407;SDS011;4241;48.452;9.216;2022-12-07T12:29:26;334.33;;;102.50;;
8407;SDS011;4241;48.452;9.216;2022-12-07T12:32:06;337.50;;;103.33;;
8407;SDS011;4241;48.452;9.216;2022-12-07T12:34:40;341.73;;;104.70;;
8407;SDS011;4241;48.452;9.216;2022-12-07T12:49:14;332.87;;;102.73;;
8407;SDS011;4241;48.452;9.216;2022-12-07T12:52:01;333.87;;;102.60;;
8407;SDS011;4241;48.452;9.216;2022-12-07T12:55:20;334.60;;;102.83;;
8407;SDS011;4241;48.452;9.216;2022-12-07T13:04:14;334.20;;;104.40;;
8407;SDS011;4241;48.452;9.216;2022-12-07T13:06:47;335.57;;;103.50;;
8407;SDS011;4241;48.452;9.216;2022-12-07T13:09:18;330.80;;;103.10;;
8407;SDS011;4241;48.452;9.216;2022-12-07T13:11:49;333.93;;;103.50;;
8407;SDS011;4241;48.452;9.216;2022-12-07T13:23:20;328.27;;;101.07;;
8407;SDS011;4241;48.452;9.216;2022-12-07T13:26:19;330.17;;;102.27;;
8407;SDS011;4241;48.452;9.216;2022-12-07T13:28:50;334.13;;;102.57;;
8407;SDS011;4241;48.452;9.216;2022-12-07T13:31:20;337.00;;;103.17;;
8407;SDS011;4241;48.452;9.216;2022-12-07T13:34:00;337.80;;;104.00;;
8407;SDS011;4241;48.452;9.216;2022-12-07T13:36:29;334.17;;;102.57;;
8407;SDS011;4241;48.452;9.216;2022-12-07T13:39:09;334.23;;;101.60;;
8407;SDS011;4241;48.452;9.216;2022-12-07T13:41:42;334.50;;;101.73;;
8407;SDS011;4241;48.452;9.216;2022-12-07T13:44:12;337.83;;;104.10;;
8407;SDS011;4241;48.452;9.216;2022-12-07T13:46:43;339.67;;;104.13;;
8407;SDS011;4241;48.452;9.216;2022-12-07T13:49:16;348.23;;;108.80;;
8407;SDS011;4241;48.452;9.216;2022-12-07T13:51:46;337.63;;;103.47;;
8407;SDS011;4241;48.452;9.216;2022-12-07T13:54:13;335.40;;;102.27;;
8407;SDS011;4241;48.452;9.216;2022-12-07T13:56:40;334.13;;;102.27;;
8407;SDS011;4241;48.452;9.216;2022-12-07T13:59:12;328.37;;;101.60;;
8407;SDS011;4241;48.452;9.216;2022-12-07T14:01:41;327.43;;;102.13;;
8407;SDS011;4241;48.452;9.216;2022-12-07T14:04:18;316.90;;;98.53;;
8407;SDS011;4241;48.452;9.216;2022-12-07T14:06:53;317.03;;;98.97;;
8407;SDS011;4241;48.452;9.216;2022-12-07T14:09:21;318.07;;;99.90;;
8407;SDS011;4241;48.452;9.216;2022-12-07T14:11:49;328.50;;;103.63;;
8407;SDS011;4241;48.452;9.216;2022-12-07T14:14:20;318.10;;;100.37;;
8407;SDS011;4241;48.452;9.216;2022-12-07T14:17:01;316.33;;;99.50;;
8407;SDS011;4241;48.452;9.216;2022-12-07T14:19:42;305.20;;;98.00;;
8407;SDS011;4241;48.452;9.216;2022-12-07T14:22:18;309.30;;;98.23;;
8407;SDS011;4241;48.452;9.216;2022-12-07T14:24:50;319.57;;;103.40;;
8407;SDS011;4241;48.452;9.216;2022-12-07T14:27:24;315.37;;;99.03;;
8407;SDS011;4241;48.452;9.216;2022-12-07T14:30:00;317.47;;;99.47;;
8407;SDS011;4241;48.452;9.216;2022-12-07T14:32:27;318.67;;;99.57;;
8407;SDS011;4241;48.452;9.216;2022-12-07T14:34:56;320.27;;;103.73;;
8407;SDS011;4241;48.452;9.216;2022-12-07T14:37:24;315.43;;;98.43;;
8407;SDS011;4241;48.452;9.216;2022-12-07T14:39:52;323.70;;;100.33;;
8407;SDS011;4241;48.452;9.216;2022-12-07T14:42:19;327.30;;;101.60;;
8407;SDS011;4241;48.452;9.216;2022-12-07T14:44:50;340.20;;;108.97;;
8407;SDS011;4241;48.452;9.216;2022-12-07T14:47:18;333.30;;;102.23;;
8407;SDS011;4241;48.452;9.216;2022-12-07T14:49:45;336.33;;;102.80;;
8407;SDS011;4241;48.452;9.216;2022-12-07T14:52:13;329.83;;;101.03;;
8407;SDS011;4241;48.452;9.216;2022-12-07T14:54:42;338.00;;;104.63;;
8407;SDS011;4241;48.452;9.216;2022-12-07T14:57:09;334.10;;;101.93;;
8407;SDS011;4241;48.452;9.216;2022-12-07T14:59:36;335.73;;;102.50;;
8407;SDS011;4241;48.452;9.216;2022-12-07T15:02:03;332.10;;;101.23;;
8407;SDS011;4241;48.452;9.216;2022-12-07T15:04:31;326.80;;;100.93;;
8407;SDS011;4241;48.452;9.216;2022-12-07T15:06:59;313.93;;;97.87;;
8407;SDS011;4241;48.452;9.216;2022-12-07T15:09:27;297.43;;;96.77;;
8407;SDS011;4241;48.452;9.216;2022-12-07T15:11:54;287.73;;;94.67;;
8407;SDS011;4241;48.452;9.216;2022-12-07T15:14:21;283.43;;;92.73;;
8407;SDS011;4241;48.452;9.216;2022-12-07T15:16:48;280.37;;;92.20;;
8407;SDS011;4241;48.452;9.216;2022-12-07T15:19:15;282.37;;;92.87;;
8407;SDS011;4241;48.452;9.216;2022-12-07T15:21:45;283.33;;;92.53;;
8407;SDS011;4241;48.452;9.216;2022-12-07T15:24:12;283.87;;;93.47;;